Maersk Marmara — 9V9266 — position and weather

sailwx.info

Track history (hours):
 
Tides and Currents Weather Stations Pressure Air Temp Water Temp Dewpoint Dewpoint Depression Visibility Wind Speed Wind Dir Waves Ship Positions

Maersk Marmara

Last reported at 2017-Nov-14 14:40 UTC. Time now 2017-Nov-24 05:40 UTC.
Position N 48°28' W 126°19'.
Warning: this ship's position is 9 days out of date.

Length 183 m; draft 10 m.

Type: Ship. MMSI: 564100000.

Date/timePositionNaut miles runAvg speedWind from/ knotsBaromVisibWave heightAir tempDewpointWater temp
2017-Nov-14 14:40N 48°28' W 126°19'210.1
2017-Nov-14 14:28N 48°28' W 126°16'510.1
2017-Nov-14 14:00N 48°29' W 126°09'5 9.8
2017-Nov-14 13:28N 48°29' W 126°01'5 9.9
2017-Nov-14 13:00N 48°29' W 125°54'510.6
2017-Nov-14 12:30N 48°30' W 125°46'610.6
2017-Nov-14 11:58N 48°30' W 125°38'5 9.9
2017-Nov-14 11:30N 48°30' W 125°31'510.4
2017-Nov-14 11:00N 48°30' W 125°23'611.1
2017-Nov-14 10:29N 48°31' W 125°14'611.6
2017-Nov-14 09:59N 48°31' W 125°06'611.2
2017-Nov-14 09:29N 48°31' W 124°57'510.7
2017-Nov-14 09:00N 48°31' W 124°49'510.0
2017-Nov-14 08:30N 48°30' W 124°42'510.3
2017-Nov-14 08:00N 48°28' W 124°35'510.6
2017-Nov-14 07:30N 48°26' W 124°27'510.9
2017-Nov-14 07:00N 48°24' W 124°20'510.9
2017-Nov-14 06:30N 48°22' W 124°12'611.4
2017-Nov-14 06:00N 48°20' W 124°04'611.5
2017-Nov-14 05:30N 48°17' W 123°56'611.4
2017-Nov-14 05:00N 48°17' W 123°48'612.2
2017-Nov-14 04:30N 48°16' W 123°39'612.2
2017-Nov-14 04:00N 48°14' W 123°30'612.2
2017-Nov-14 03:29N 48°10' W 123°24'2 4.4
2017-Nov-14 03:00N 48°08' W 123°25'1 1.5
2017-Nov-14 02:30N 48°08' W 123°27'0 0.1
2017-Nov-14 02:00N 48°08' W 123°27'0 0.3
2017-Nov-14 01:30N 48°08' W 123°27'0 0.0
2017-Nov-14 01:00N 48°08' W 123°27'0 0.1
2017-Nov-14 00:21N 48°08' W 123°27'0 0.0
2017-Nov-14 00:00N 48°08' W 123°27'0 0.0
2017-Nov-13 23:27N 48°08' W 123°27'0 0.1
2017-Nov-13 23:00N 48°08' W 123°27'0 0.1
2017-Nov-13 22:27N 48°08' W 123°27'0 0.1
2017-Nov-13 22:00N 48°08' W 123°27'4 0.2
2017-Nov-13 02:00N 48°09' W 123°21'713.3
2017-Nov-13 01:30N 48°12' W 123°13'815.3
2017-Nov-13 00:58N 48°18' W 123°04'613.8
2017-Nov-13 00:30N 48°21' W 122°56'713.2
2017-Nov-12 23:59N 48°25' W 122°47'510.5
2017-Nov-12 23:30N 48°30' W 122°45'510.9
2017-Nov-12 23:00N 48°35' W 122°45'510.7
2017-Nov-12 22:30N 48°41' W 122°43'510.4
2017-Nov-12 22:00N 48°46' W 122°46'611.0
2017-Nov-12 21:30N 48°51' W 122°46'1 0.0
2017-Nov-12 01:49N 48°52' W 122°46'0 0.0
2017-Nov-12 01:28N 48°52' W 122°46'0 0.1
2017-Nov-12 01:00N 48°52' W 122°46'1 2.7
2017-Nov-12 00:30N 48°50' W 122°45'610.8
2017-Nov-11 23:56N 48°44' W 122°45'510.7
2017-Nov-11 23:30N 48°40' W 122°42'5 9.9
2017-Nov-11 23:01N 48°37' W 122°35'2 3.2
2017-Nov-11 22:28N 48°37' W 122°33'0 0.1
2017-Nov-11 21:58N 48°37' W 122°33'0 0.1
2017-Nov-11 21:25N 48°37' W 122°33'0 0.0
2017-Nov-11 20:55N 48°37' W 122°33'0 0.0
2017-Nov-11 20:25N 48°37' W 122°33'0 0.2
2017-Nov-11 19:58N 48°37' W 122°33'0 0.1
2017-Nov-11 19:25N 48°37' W 122°33'0 0.1
2017-Nov-11 18:55N 48°37' W 122°33'0 0.1
2017-Nov-11 18:28N 48°37' W 122°33'0 0.1
2017-Nov-11 17:58N 48°37' W 122°33'0 0.1
2017-Nov-11 17:25N 48°37' W 122°32'0 0.1
2017-Nov-11 16:55N 48°37' W 122°33'0 0.0
2017-Nov-11 16:25N 48°37' W 122°33'0 0.0
2017-Nov-11 15:58N 48°37' W 122°33'0 0.1
2017-Nov-11 15:19N 48°37' W 122°33'0 0.0
2017-Nov-11 14:58N 48°37' W 122°33'0 0.1
2017-Nov-11 14:13N 48°37' W 122°33'0 0.0
2017-Nov-11 13:55N 48°37' W 122°33'0 0.2
2017-Nov-11 13:28N 48°37' W 122°33'0 0.1
2017-Nov-11 12:49N 48°37' W 122°33'0 0.0
2017-Nov-11 12:28N 48°37' W 122°33'0 0.0
2017-Nov-11 11:58N 48°37' W 122°33'0 0.1
2017-Nov-11 11:25N 48°37' W 122°33'0 0.1
2017-Nov-11 10:55N 48°37' W 122°33'0 0.1
2017-Nov-11 10:25N 48°37' W 122°33'0 0.0
2017-Nov-11 09:58N 48°37' W 122°33'0 0.0
2017-Nov-11 09:28N 48°37' W 122°33'0 0.0
2017-Nov-11 08:58N 48°37' W 122°33'0 0.0
2017-Nov-11 08:13N 48°37' W 122°33'0 0.0
2017-Nov-11 07:58N 48°37' W 122°33'0 0.0
2017-Nov-11 07:28N 48°37' W 122°33'0 0.1
2017-Nov-11 06:58N 48°37' W 122°33'0 0.0
2017-Nov-11 06:28N 48°37' W 122°33'0 0.0
2017-Nov-11 05:55N 48°37' W 122°33'0 0.0
2017-Nov-11 05:28N 48°37' W 122°33'0 0.1
2017-Nov-11 04:58N 48°37' W 122°33'0 0.2
2017-Nov-11 04:28N 48°37' W 122°33'0 0.1
2017-Nov-11 03:49N 48°37' W 122°33'0 0.1
2017-Nov-11 03:28N 48°37' W 122°33'0 0.0
2017-Nov-11 02:55N 48°37' W 122°33'0 0.0
2017-Nov-11 02:22N 48°37' W 122°33'0 0.1
2017-Nov-11 01:55N 48°37' W 122°33'0 0.0
2017-Nov-11 01:25N 48°37' W 122°33'0 0.0
2017-Nov-11 00:58N 48°37' W 122°33'0 0.0
2017-Nov-11 00:25N 48°37' W 122°33'0 0.0
2017-Nov-10 23:58N 48°37' W 122°33'0 0.1
2017-Nov-10 23:25N 48°37' W 122°33'0 0.0
2017-Nov-10 22:58N 48°37' W 122°33'0 0.1
2017-Nov-10 22:28N 48°37' W 122°33'0 0.0
2017-Nov-10 21:55N 48°37' W 122°33'0 0.0
2017-Nov-10 21:28N 48°37' W 122°33'0 0.0
2017-Nov-10 20:58N 48°37' W 122°33'0 0.0
2017-Nov-10 20:28N 48°37' W 122°33'0 0.0
2017-Nov-10 19:58N 48°37' W 122°33'0 0.0
2017-Nov-10 19:25N 48°37' W 122°33'0 0.0
2017-Nov-10 18:55N 48°37' W 122°33'0 0.0
2017-Nov-10 18:13N 48°37' W 122°33'0 0.0
2017-Nov-10 17:49N 48°37' W 122°33'0 0.0
2017-Nov-10 17:13N 48°37' W 122°33'0 0.2
2017-Nov-10 16:58N 48°37' W 122°33'0 0.0
2017-Nov-10 16:28N 48°37' W 122°33'0 0.0
2017-Nov-10 15:58N 48°37' W 122°33'0 0.1
2017-Nov-10 15:25N 48°37' W 122°32'0 0.1
2017-Nov-10 14:58N 48°37' W 122°33'0 0.1
2017-Nov-10 14:28N 48°37' W 122°32'0 0.0
2017-Nov-10 13:55N 48°37' W 122°32'0 0.0
2017-Nov-10 13:19N 48°37' W 122°32'0 0.1
2017-Nov-10 12:55N 48°37' W 122°33'0 0.0
2017-Nov-10 12:25N 48°37' W 122°33'0 0.1
2017-Nov-10 11:55N 48°37' W 122°33'0 0.1
2017-Nov-10 11:28N 48°37' W 122°33'0 0.2
2017-Nov-10 10:58N 48°37' W 122°33'0 0.0
2017-Nov-10 10:25N 48°37' W 122°33'0 0.1
2017-Nov-10 09:58N 48°37' W 122°33'0 0.0
2017-Nov-10 09:28N 48°37' W 122°33'0 0.0
2017-Nov-10 08:55N 48°37' W 122°33'0 0.0
2017-Nov-10 08:25N 48°37' W 122°33'0 0.0
2017-Nov-10 07:58N 48°37' W 122°33'0 0.0
2017-Nov-10 07:28N 48°37' W 122°33'0 0.0
2017-Nov-10 06:58N 48°37' W 122°33'0 0.0
2017-Nov-10 06:28N 48°37' W 122°33'0 0.0
2017-Nov-10 05:58N 48°37' W 122°33'0 0.0
2017-Nov-10 05:28N 48°37' W 122°33'0 0.0
2017-Nov-10 04:55N 48°37' W 122°33'0 0.0
2017-Nov-10 04:22N 48°37' W 122°33'0 0.0
2017-Nov-10 03:49N 48°37' W 122°33'0 0.1
2017-Nov-10 03:28N 48°37' W 122°33'0 0.0
2017-Nov-10 02:55N 48°37' W 122°33'0 0.0
2017-Nov-10 02:25N 48°37' W 122°33'0 0.0
2017-Nov-10 01:58N 48°37' W 122°33'0 0.0
2017-Nov-10 01:28N 48°37' W 122°33'0 0.0
2017-Nov-10 00:55N 48°37' W 122°33'0 0.0
2017-Nov-10 00:30N 48°37' W 122°33'0 0.0
2017-Nov-10 00:00N 48°37' W 122°33'0 0.1
2017-Nov-09 23:30N 48°37' W 122°33'0 0.0
2017-Nov-09 23:00N 48°37' W 122°33'0 0.0
2017-Nov-09 22:30N 48°37' W 122°33'0 0.0
2017-Nov-09 22:00N 48°37' W 122°33'0 0.1
2017-Nov-09 21:30N 48°37' W 122°33'0 0.3
2017-Nov-09 21:00N 48°37' W 122°33'0 0.2
2017-Nov-09 20:30N 48°37' W 122°33'0 0.0
2017-Nov-09 20:00N 48°37' W 122°33'0 0.1
2017-Nov-09 19:30N 48°37' W 122°33'0 0.1
2017-Nov-09 19:00N 48°37' W 122°33'0 0.0
2017-Nov-09 18:30N 48°37' W 122°33'0 0.0
2017-Nov-09 18:00N 48°37' W 122°33'0 0.0
2017-Nov-09 17:30N 48°37' W 122°33'0 0.0
2017-Nov-09 17:00N 48°37' W 122°33'0 0.0
2017-Nov-09 16:30N 48°37' W 122°33'0 0.1
2017-Nov-09 16:00N 48°37' W 122°33'0 0.0
2017-Nov-09 15:30N 48°37' W 122°33'0 0.1
2017-Nov-09 15:00N 48°37' W 122°32'0 0.1
2017-Nov-09 14:30N 48°37' W 122°33'0 0.1
2017-Nov-09 13:59N 48°37' W 122°32'0 0.0
2017-Nov-09 13:30N 48°37' W 122°32'0 0.1
2017-Nov-09 13:00N 48°37' W 122°32'0 0.0
2017-Nov-09 12:30N 48°37' W 122°32'0 0.0
2017-Nov-09 12:00N 48°37' W 122°32'0 0.1
2017-Nov-09 11:30N 48°37' W 122°33'0 0.0
2017-Nov-09 11:00N 48°37' W 122°33'0 0.1
2017-Nov-09 10:30N 48°37' W 122°32'0 0.2
2017-Nov-09 10:00N 48°37' W 122°32'0 0.3
2017-Nov-09 09:30N 48°37' W 122°33'0 0.1
2017-Nov-09 09:00N 48°37' W 122°33'0 0.0
2017-Nov-09 08:30N 48°37' W 122°33'0 0.1
2017-Nov-09 08:00N 48°37' W 122°33'0 0.1
2017-Nov-09 07:30N 48°37' W 122°33'0 0.2
2017-Nov-09 07:00N 48°37' W 122°33'0 0.2
2017-Nov-09 06:30N 48°37' W 122°33'0 0.0
2017-Nov-09 06:00N 48°37' W 122°33'0 0.1
2017-Nov-09 05:30N 48°37' W 122°33'0 0.2
2017-Nov-09 05:00N 48°37' W 122°33'2 3.1
2017-Nov-09 04:30N 48°37' W 122°35'5 9.6
2017-Nov-09 04:00N 48°39' W 122°41'510.8
2017-Nov-09 03:30N 48°44' W 122°46'510.4
2017-Nov-09 03:00N 48°49' W 122°46'3 1.5
2017-Nov-09 01:10N 48°52' W 122°46'0 0.2
2017-Nov-09 00:56N 48°52' W 122°46'0 0.0
2017-Nov-09 00:29N 48°52' W 122°46'0 0.0
2017-Nov-08 23:58N 48°52' W 122°46'0 0.0
2017-Nov-08 23:30N 48°52' W 122°46'0 0.0
2017-Nov-08 22:59N 48°52' W 122°46'0 0.0
2017-Nov-08 22:30N 48°52' W 122°46'0 0.0
2017-Nov-08 22:00N 48°52' W 122°46'0 0.0
2017-Nov-08 21:30N 48°52' W 122°46'0 0.0
2017-Nov-08 21:00N 48°52' W 122°46'0 0.0
2017-Nov-08 20:30N 48°52' W 122°46'0 0.0
2017-Nov-08 19:55N 48°52' W 122°46'0 0.0
2017-Nov-08 19:29N 48°52' W 122°46'0 0.0
2017-Nov-08 18:57N 48°52' W 122°46'0 0.0
2017-Nov-08 18:30N 48°52' W 122°46'0 0.0
2017-Nov-08 18:00N 48°52' W 122°46'0 0.0
2017-Nov-08 17:30N 48°52' W 122°46'0 0.0
2017-Nov-08 17:00N 48°52' W 122°46'0 0.0
2017-Nov-08 16:30N 48°52' W 122°46'0 0.0
2017-Nov-08 16:00N 48°52' W 122°46'0 0.0
2017-Nov-08 15:29N 48°52' W 122°46'0 0.0
2017-Nov-08 14:59N 48°52' W 122°46'0 0.0
2017-Nov-08 14:29N 48°52' W 122°46'0 0.0
2017-Nov-08 13:59N 48°52' W 122°46'0 0.0
2017-Nov-08 13:29N 48°52' W 122°46'0 0.0
2017-Nov-08 12:58N 48°52' W 122°46'0 0.0
2017-Nov-08 12:30N 48°52' W 122°46'0 0.0
2017-Nov-08 11:58N 48°52' W 122°46'0 0.0
2017-Nov-08 11:22N 48°52' W 122°46'0 0.0
2017-Nov-08 10:50N 48°52' W 122°46'0 0.0
2017-Nov-08 10:09N 48°52' W 122°46'0 0.0
2017-Nov-08 09:17N 48°52' W 122°46'0 0.0
2017-Nov-08 08:48N 48°52' W 122°46'0 0.0
2017-Nov-08 08:25N 48°52' W 122°46'0 0.0
2017-Nov-08 07:57N 48°52' W 122°46'0 0.0
2017-Nov-08 07:18N 48°52' W 122°46'0 0.0
2017-Nov-08 06:55N 48°52' W 122°46'0 0.0
2017-Nov-08 06:30N 48°52' W 122°46'1 2.0
2017-Nov-08 06:00N 48°51' W 122°45'3 5.0
2017-Nov-08 05:28N 48°48' W 122°46'510.1
2017-Nov-08 05:00N 48°44' W 122°45'510.0
2017-Nov-08 04:30N 48°39' W 122°44'510.6
2017-Nov-08 04:01N 48°33' W 122°45'611.5
2017-Nov-08 03:31N 48°28' W 122°45'612.3
2017-Nov-08 03:01N 48°23' W 122°50'713.0
2017-Nov-08 02:30N 48°19' W 122°59'712.6
2017-Nov-08 01:55N 48°15' W 123°08'512.6
2017-Nov-08 01:29N 48°12' W 123°14'611.7
2017-Nov-08 01:00N 48°10' W 123°22'612.4
2017-Nov-08 00:30N 48°13' W 123°30'612.8
2017-Nov-08 00:00N 48°13' W 123°40'611.7
2017-Nov-07 23:30N 48°13' W 123°49'510.4
2017-Nov-07 23:01N 48°14' W 123°56'4 7.0
2017-Nov-07 22:30N 48°15' W 124°01'611.7
2017-Nov-07 22:00N 48°18' W 124°09'612.5
2017-Nov-07 21:30N 48°20' W 124°18'612.7
2017-Nov-07 21:00N 48°23' W 124°26'612.8
2017-Nov-07 20:31N 48°26' W 124°35'612.3
2017-Nov-07 20:00N 48°28' W 124°43'612.4
2017-Nov-07 19:30N 48°29' W 124°53'611.1
2017-Nov-07 19:00N 48°28' W 125°01'612.9
2017-Nov-07 18:30N 48°22' W 125°06'712.8
2017-Nov-07 17:58N 48°18' W 125°14'612.8
2017-Nov-07 17:30N 48°14' W 125°20'713.2
2017-Nov-07 17:00N 48°10' W 125°28'  
Track history (hours):
 
Tides and Currents Weather Stations Pressure Air Temp Water Temp Dewpoint Dewpoint Depression Visibility Wind Speed Wind Dir Waves Ship Positions

Maersk Marmara

Last reported at 2017-Nov-14 14:40 UTC. Time now 2017-Nov-24 05:40 UTC.
Position N 48°28' W 126°19'.
Warning: this ship's position is 9 days out of date.

Length 183 m; draft 10 m.

Type: Ship. MMSI: 564100000.

Date/timePositionNaut miles runAvg speedWind from/ knotsBaromVisibWave heightAir tempDewpointWater temp
2017-Nov-14 14:40N 48°28' W 126°19'210.1
2017-Nov-14 14:28N 48°28' W 126°16'510.1
2017-Nov-14 14:00N 48°29' W 126°09'5 9.8
2017-Nov-14 13:28N 48°29' W 126°01'5 9.9
2017-Nov-14 13:00N 48°29' W 125°54'510.6
2017-Nov-14 12:30N 48°30' W 125°46'610.6
2017-Nov-14 11:58N 48°30' W 125°38'5 9.9
2017-Nov-14 11:30N 48°30' W 125°31'510.4
2017-Nov-14 11:00N 48°30' W 125°23'611.1
2017-Nov-14 10:29N 48°31' W 125°14'611.6
2017-Nov-14 09:59N 48°31' W 125°06'611.2
2017-Nov-14 09:29N 48°31' W 124°57'510.7
2017-Nov-14 09:00N 48°31' W 124°49'510.0
2017-Nov-14 08:30N 48°30' W 124°42'510.3
2017-Nov-14 08:00N 48°28' W 124°35'510.6
2017-Nov-14 07:30N 48°26' W 124°27'510.9
2017-Nov-14 07:00N 48°24' W 124°20'510.9
2017-Nov-14 06:30N 48°22' W 124°12'611.4
2017-Nov-14 06:00N 48°20' W 124°04'611.5
2017-Nov-14 05:30N 48°17' W 123°56'611.4
2017-Nov-14 05:00N 48°17' W 123°48'612.2
2017-Nov-14 04:30N 48°16' W 123°39'612.2
2017-Nov-14 04:00N 48°14' W 123°30'612.2
2017-Nov-14 03:29N 48°10' W 123°24'2 4.4
2017-Nov-14 03:00N 48°08' W 123°25'1 1.5
2017-Nov-14 02:30N 48°08' W 123°27'0 0.1
2017-Nov-14 02:00N 48°08' W 123°27'0 0.3
2017-Nov-14 01:30N 48°08' W 123°27'0 0.0
2017-Nov-14 01:00N 48°08' W 123°27'0 0.1
2017-Nov-14 00:21N 48°08' W 123°27'0 0.0
2017-Nov-14 00:00N 48°08' W 123°27'0 0.0
2017-Nov-13 23:27N 48°08' W 123°27'0 0.1
2017-Nov-13 23:00N 48°08' W 123°27'0 0.1
2017-Nov-13 22:27N 48°08' W 123°27'0 0.1
2017-Nov-13 22:00N 48°08' W 123°27'4 0.2
2017-Nov-13 02:00N 48°09' W 123°21'713.3
2017-Nov-13 01:30N 48°12' W 123°13'815.3
2017-Nov-13 00:58N 48°18' W 123°04'613.8
2017-Nov-13 00:30N 48°21' W 122°56'713.2
2017-Nov-12 23:59N 48°25' W 122°47'510.5
2017-Nov-12 23:30N 48°30' W 122°45'510.9
2017-Nov-12 23:00N 48°35' W 122°45'510.7
2017-Nov-12 22:30N 48°41' W 122°43'510.4
2017-Nov-12 22:00N 48°46' W 122°46'611.0
2017-Nov-12 21:30N 48°51' W 122°46'1 0.0
2017-Nov-12 01:49N 48°52' W 122°46'0 0.0
2017-Nov-12 01:28N 48°52' W 122°46'0 0.1
2017-Nov-12 01:00N 48°52' W 122°46'1 2.7
2017-Nov-12 00:30N 48°50' W 122°45'610.8
2017-Nov-11 23:56N 48°44' W 122°45'510.7
2017-Nov-11 23:30N 48°40' W 122°42'5 9.9
2017-Nov-11 23:01N 48°37' W 122°35'2 3.2
2017-Nov-11 22:28N 48°37' W 122°33'0 0.1
2017-Nov-11 21:58N 48°37' W 122°33'0 0.1
2017-Nov-11 21:25N 48°37' W 122°33'0 0.0
2017-Nov-11 20:55N 48°37' W 122°33'0 0.0
2017-Nov-11 20:25N 48°37' W 122°33'0 0.2
2017-Nov-11 19:58N 48°37' W 122°33'0 0.1
2017-Nov-11 19:25N 48°37' W 122°33'0 0.1
2017-Nov-11 18:55N 48°37' W 122°33'0 0.1
2017-Nov-11 18:28N 48°37' W 122°33'0 0.1
2017-Nov-11 17:58N 48°37' W 122°33'0 0.1
2017-Nov-11 17:25N 48°37' W 122°32'0 0.1
2017-Nov-11 16:55N 48°37' W 122°33'0 0.0
2017-Nov-11 16:25N 48°37' W 122°33'0 0.0
2017-Nov-11 15:58N 48°37' W 122°33'0 0.1
2017-Nov-11 15:19N 48°37' W 122°33'0 0.0
2017-Nov-11 14:58N 48°37' W 122°33'0 0.1
2017-Nov-11 14:13N 48°37' W 122°33'0 0.0
2017-Nov-11 13:55N 48°37' W 122°33'0 0.2
2017-Nov-11 13:28N 48°37' W 122°33'0 0.1
2017-Nov-11 12:49N 48°37' W 122°33'0 0.0
2017-Nov-11 12:28N 48°37' W 122°33'0 0.0
2017-Nov-11 11:58N 48°37' W 122°33'0 0.1
2017-Nov-11 11:25N 48°37' W 122°33'0 0.1
2017-Nov-11 10:55N 48°37' W 122°33'0 0.1
2017-Nov-11 10:25N 48°37' W 122°33'0 0.0
2017-Nov-11 09:58N 48°37' W 122°33'0 0.0
2017-Nov-11 09:28N 48°37' W 122°33'0 0.0
2017-Nov-11 08:58N 48°37' W 122°33'0 0.0
2017-Nov-11 08:13N 48°37' W 122°33'0 0.0
2017-Nov-11 07:58N 48°37' W 122°33'0 0.0
2017-Nov-11 07:28N 48°37' W 122°33'0 0.1
2017-Nov-11 06:58N 48°37' W 122°33'0 0.0
2017-Nov-11 06:28N 48°37' W 122°33'0 0.0
2017-Nov-11 05:55N 48°37' W 122°33'0 0.0
2017-Nov-11 05:28N 48°37' W 122°33'0 0.1
2017-Nov-11 04:58N 48°37' W 122°33'0 0.2
2017-Nov-11 04:28N 48°37' W 122°33'0 0.1
2017-Nov-11 03:49N 48°37' W 122°33'0 0.1
2017-Nov-11 03:28N 48°37' W 122°33'0 0.0
2017-Nov-11 02:55N 48°37' W 122°33'0 0.0
2017-Nov-11 02:22N 48°37' W 122°33'0 0.1
2017-Nov-11 01:55N 48°37' W 122°33'0 0.0
2017-Nov-11 01:25N 48°37' W 122°33'0 0.0
2017-Nov-11 00:58N 48°37' W 122°33'0 0.0
2017-Nov-11 00:25N 48°37' W 122°33'0 0.0
2017-Nov-10 23:58N 48°37' W 122°33'0 0.1
2017-Nov-10 23:25N 48°37' W 122°33'0 0.0
2017-Nov-10 22:58N 48°37' W 122°33'0 0.1
2017-Nov-10 22:28N 48°37' W 122°33'0 0.0
2017-Nov-10 21:55N 48°37' W 122°33'0 0.0
2017-Nov-10 21:28N 48°37' W 122°33'0 0.0
2017-Nov-10 20:58N 48°37' W 122°33'0 0.0
2017-Nov-10 20:28N 48°37' W 122°33'0 0.0
2017-Nov-10 19:58N 48°37' W 122°33'0 0.0
2017-Nov-10 19:25N 48°37' W 122°33'0 0.0
2017-Nov-10 18:55N 48°37' W 122°33'0 0.0
2017-Nov-10 18:13N 48°37' W 122°33'0 0.0
2017-Nov-10 17:49N 48°37' W 122°33'0 0.0
2017-Nov-10 17:13N 48°37' W 122°33'0 0.2
2017-Nov-10 16:58N 48°37' W 122°33'0 0.0
2017-Nov-10 16:28N 48°37' W 122°33'0 0.0
2017-Nov-10 15:58N 48°37' W 122°33'0 0.1
2017-Nov-10 15:25N 48°37' W 122°32'0 0.1
2017-Nov-10 14:58N 48°37' W 122°33'0 0.1
2017-Nov-10 14:28N 48°37' W 122°32'0 0.0
2017-Nov-10 13:55N 48°37' W 122°32'0 0.0
2017-Nov-10 13:19N 48°37' W 122°32'0 0.1
2017-Nov-10 12:55N 48°37' W 122°33'0 0.0
2017-Nov-10 12:25N 48°37' W 122°33'0 0.1
2017-Nov-10 11:55N 48°37' W 122°33'0 0.1
2017-Nov-10 11:28N 48°37' W 122°33'0 0.2
2017-Nov-10 10:58N 48°37' W 122°33'0 0.0
2017-Nov-10 10:25N 48°37' W 122°33'0 0.1
2017-Nov-10 09:58N 48°37' W 122°33'0 0.0
2017-Nov-10 09:28N 48°37' W 122°33'0 0.0
2017-Nov-10 08:55N 48°37' W 122°33'0 0.0
2017-Nov-10 08:25N 48°37' W 122°33'0 0.0
2017-Nov-10 07:58N 48°37' W 122°33'0 0.0
2017-Nov-10 07:28N 48°37' W 122°33'0 0.0
2017-Nov-10 06:58N 48°37' W 122°33'0 0.0
2017-Nov-10 06:28N 48°37' W 122°33'0 0.0
2017-Nov-10 05:58N 48°37' W 122°33'0 0.0
2017-Nov-10 05:28N 48°37' W 122°33'0 0.0
2017-Nov-10 04:55N 48°37' W 122°33'0 0.0
2017-Nov-10 04:22N 48°37' W 122°33'0 0.0
2017-Nov-10 03:49N 48°37' W 122°33'0 0.1
2017-Nov-10 03:28N 48°37' W 122°33'0 0.0
2017-Nov-10 02:55N 48°37' W 122°33'0 0.0
2017-Nov-10 02:25N 48°37' W 122°33'0 0.0
2017-Nov-10 01:58N 48°37' W 122°33'0 0.0
2017-Nov-10 01:28N 48°37' W 122°33'0 0.0
2017-Nov-10 00:55N 48°37' W 122°33'0 0.0
2017-Nov-10 00:30N 48°37' W 122°33'0 0.0
2017-Nov-10 00:00N 48°37' W 122°33'0 0.1
2017-Nov-09 23:30N 48°37' W 122°33'0 0.0
2017-Nov-09 23:00N 48°37' W 122°33'0 0.0
2017-Nov-09 22:30N 48°37' W 122°33'0 0.0
2017-Nov-09 22:00N 48°37' W 122°33'0 0.1
2017-Nov-09 21:30N 48°37' W 122°33'0 0.3
2017-Nov-09 21:00N 48°37' W 122°33'0 0.2
2017-Nov-09 20:30N 48°37' W 122°33'0 0.0
2017-Nov-09 20:00N 48°37' W 122°33'0 0.1
2017-Nov-09 19:30N 48°37' W 122°33'0 0.1
2017-Nov-09 19:00N 48°37' W 122°33'0 0.0
2017-Nov-09 18:30N 48°37' W 122°33'0 0.0
2017-Nov-09 18:00N 48°37' W 122°33'0 0.0
2017-Nov-09 17:30N 48°37' W 122°33'0 0.0
2017-Nov-09 17:00N 48°37' W 122°33'0 0.0
2017-Nov-09 16:30N 48°37' W 122°33'0 0.1
2017-Nov-09 16:00N 48°37' W 122°33'0 0.0
2017-Nov-09 15:30N 48°37' W 122°33'0 0.1
2017-Nov-09 15:00N 48°37' W 122°32'0 0.1
2017-Nov-09 14:30N 48°37' W 122°33'0 0.1
2017-Nov-09 13:59N 48°37' W 122°32'0 0.0
2017-Nov-09 13:30N 48°37' W 122°32'0 0.1
2017-Nov-09 13:00N 48°37' W 122°32'0 0.0
2017-Nov-09 12:30N 48°37' W 122°32'0 0.0
2017-Nov-09 12:00N 48°37' W 122°32'0 0.1
2017-Nov-09 11:30N 48°37' W 122°33'0 0.0
2017-Nov-09 11:00N 48°37' W 122°33'0 0.1
2017-Nov-09 10:30N 48°37' W 122°32'0 0.2
2017-Nov-09 10:00N 48°37' W 122°32'0 0.3
2017-Nov-09 09:30N 48°37' W 122°33'0 0.1
2017-Nov-09 09:00N 48°37' W 122°33'0 0.0
2017-Nov-09 08:30N 48°37' W 122°33'0 0.1
2017-Nov-09 08:00N 48°37' W 122°33'0 0.1
2017-Nov-09 07:30N 48°37' W 122°33'0 0.2
2017-Nov-09 07:00N 48°37' W 122°33'0 0.2
2017-Nov-09 06:30N 48°37' W 122°33'0 0.0
2017-Nov-09 06:00N 48°37' W 122°33'0 0.1
2017-Nov-09 05:30N 48°37' W 122°33'0 0.2
2017-Nov-09 05:00N 48°37' W 122°33'2 3.1
2017-Nov-09 04:30N 48°37' W 122°35'5 9.6
2017-Nov-09 04:00N 48°39' W 122°41'510.8
2017-Nov-09 03:30N 48°44' W 122°46'510.4
2017-Nov-09 03:00N 48°49' W 122°46'3 1.5
2017-Nov-09 01:10N 48°52' W 122°46'0 0.2
2017-Nov-09 00:56N 48°52' W 122°46'0 0.0
2017-Nov-09 00:29N 48°52' W 122°46'0 0.0
2017-Nov-08 23:58N 48°52' W 122°46'0 0.0
2017-Nov-08 23:30N 48°52' W 122°46'0 0.0
2017-Nov-08 22:59N 48°52' W 122°46'0 0.0
2017-Nov-08 22:30N 48°52' W 122°46'0 0.0
2017-Nov-08 22:00N 48°52' W 122°46'0 0.0
2017-Nov-08 21:30N 48°52' W 122°46'0 0.0
2017-Nov-08 21:00N 48°52' W 122°46'0 0.0
2017-Nov-08 20:30N 48°52' W 122°46'0 0.0
2017-Nov-08 19:55N 48°52' W 122°46'0 0.0
2017-Nov-08 19:29N 48°52' W 122°46'0 0.0
2017-Nov-08 18:57N 48°52' W 122°46'0 0.0
2017-Nov-08 18:30N 48°52' W 122°46'0 0.0
2017-Nov-08 18:00N 48°52' W 122°46'0 0.0
2017-Nov-08 17:30N 48°52' W 122°46'0 0.0
2017-Nov-08 17:00N 48°52' W 122°46'0 0.0
2017-Nov-08 16:30N 48°52' W 122°46'0 0.0
2017-Nov-08 16:00N 48°52' W 122°46'0 0.0
2017-Nov-08 15:29N 48°52' W 122°46'0 0.0
2017-Nov-08 14:59N 48°52' W 122°46'0 0.0
2017-Nov-08 14:29N 48°52' W 122°46'0 0.0
2017-Nov-08 13:59N 48°52' W 122°46'0 0.0
2017-Nov-08 13:29N 48°52' W 122°46'0 0.0
2017-Nov-08 12:58N 48°52' W 122°46'0 0.0
2017-Nov-08 12:30N 48°52' W 122°46'0 0.0
2017-Nov-08 11:58N 48°52' W 122°46'0 0.0
2017-Nov-08 11:22N 48°52' W 122°46'0 0.0
2017-Nov-08 10:50N 48°52' W 122°46'0 0.0
2017-Nov-08 10:09N 48°52' W 122°46'0 0.0
2017-Nov-08 09:17N 48°52' W 122°46'0 0.0
2017-Nov-08 08:48N 48°52' W 122°46'0 0.0
2017-Nov-08 08:25N 48°52' W 122°46'0 0.0
2017-Nov-08 07:57N 48°52' W 122°46'0 0.0
2017-Nov-08 07:18N 48°52' W 122°46'0 0.0
2017-Nov-08 06:55N 48°52' W 122°46'0 0.0
2017-Nov-08 06:30N 48°52' W 122°46'1 2.0
2017-Nov-08 06:00N 48°51' W 122°45'3 5.0
2017-Nov-08 05:28N 48°48' W 122°46'510.1
2017-Nov-08 05:00N 48°44' W 122°45'510.0
2017-Nov-08 04:30N 48°39' W 122°44'510.6
2017-Nov-08 04:01N 48°33' W 122°45'611.5
2017-Nov-08 03:31N 48°28' W 122°45'612.3
2017-Nov-08 03:01N 48°23' W 122°50'713.0
2017-Nov-08 02:30N 48°19' W 122°59'712.6
2017-Nov-08 01:55N 48°15' W 123°08'512.6
2017-Nov-08 01:29N 48°12' W 123°14'611.7
2017-Nov-08 01:00N 48°10' W 123°22'612.4
2017-Nov-08 00:30N 48°13' W 123°30'612.8
2017-Nov-08 00:00N 48°13' W 123°40'611.7
2017-Nov-07 23:30N 48°13' W 123°49'510.4
2017-Nov-07 23:01N 48°14' W 123°56'4 7.0
2017-Nov-07 22:30N 48°15' W 124°01'611.7
2017-Nov-07 22:00N 48°18' W 124°09'612.5
2017-Nov-07 21:30N 48°20' W 124°18'612.7
2017-Nov-07 21:00N 48°23' W 124°26'612.8
2017-Nov-07 20:31N 48°26' W 124°35'612.3
2017-Nov-07 20:00N 48°28' W 124°43'612.4
2017-Nov-07 19:30N 48°29' W 124°53'611.1
2017-Nov-07 19:00N 48°28' W 125°01'612.9
2017-Nov-07 18:30N 48°22' W 125°06'712.8
2017-Nov-07 17:58N 48°18' W 125°14'612.8
2017-Nov-07 17:30N 48°14' W 125°20'713.2
2017-Nov-07 17:00N 48°10' W 125°28'  

Dump ship's entire track history